createdAt,value
2022-09-06T00:11:32.529Z,18.55
2022-09-06T00:41:49.876Z,18.55
2022-09-06T01:12:06.899Z,18.8
2022-09-06T01:42:25.291Z,19.4
2022-09-06T02:12:46.341Z,20.8
2022-09-06T02:43:04.080Z,19.6
2022-09-06T03:13:19.073Z,19.4
2022-09-06T03:43:35.538Z,18.9
2022-09-06T04:13:53.891Z,18.4
2022-09-06T04:44:08.672Z,18.2
2022-09-06T05:14:26.811Z,18.1
2022-09-06T05:44:45.359Z,19.15
2022-09-06T06:15:05.174Z,20.05
2022-09-06T06:45:26.395Z,20.45
2022-09-06T07:15:49.156Z,23.7
2022-09-06T07:46:12.919Z,25.5
2022-09-06T08:16:39.099Z,27.6
2022-09-06T08:47:04.868Z,30.4
2022-09-06T09:17:28.966Z,32.7
2022-09-06T09:47:54.859Z,33.45
2022-09-06T10:18:16.619Z,33.95
2022-09-06T10:48:37.864Z,34.85
2022-09-06T11:18:59.187Z,35.75
2022-09-06T11:49:20.816Z,35.55
2022-09-06T12:19:44.115Z,35.8
2022-09-06T12:50:01.917Z,35.35
2022-09-06T13:20:18.276Z,34.15
2022-09-06T13:50:16.011Z,30.15
2022-09-06T14:20:22.900Z,29.05
2022-09-06T14:50:39.713Z,28.85
2022-09-06T15:20:56.467Z,28.35
2022-09-06T15:51:13.048Z,27.35
2022-09-06T16:21:28.759Z,26.4
2022-09-06T16:51:41.240Z,23.65
2022-09-06T17:21:56.411Z,21.25
2022-09-06T17:52:10.607Z,20.85
2022-09-06T18:22:28.870Z,21
2022-09-06T18:52:46.277Z,20.7
2022-09-06T19:23:03.410Z,20.2
2022-09-06T19:53:19.569Z,19.8
2022-09-06T20:23:36.040Z,19.45
2022-09-06T20:53:55.166Z,19.55
2022-09-06T21:24:12.092Z,19.5
2022-09-06T21:54:30.905Z,19
2022-09-06T22:24:47.274Z,18.4
2022-09-06T22:55:04.667Z,18.3
2022-09-06T23:25:23.597Z,18.45
2022-09-06T23:55:40.657Z,18.65
